Terminal Aerodrome Forecast
Issued by NWS

Home | Current Version | Previous Version | Text Only | Print | Product List | Glossary On
Versions: 1 2 3 4 5 6 7 8 9 10 11 12 13 14 15 16 17 18 19 20
000
FTUS43 KFGF 291130
TAFDVL
TAF
KDVL 291130Z 2912/3012 33016KT P6SM VCSH SCT015 OVC025
     FM291300 33017G25KT P6SM VCSH OVC015
     FM291900 32021G30KT P6SM VCSH OVC025
     FM292100 32019G27KT P6SM OVC035
     FM300200 33012KT P6SM OVC045=

USA.gov is the U.S. government's official web portal to all federal, state and local government web resources and services.